Flight Track Log - Related Links

Times and Time Zones

All times are in EST time to prevent confusion due to time zone crossing. See the AAY891 flight status page for this flight to view local times or setup timezone preferences in your user account.

Time Position Orientation Groundspeed Altitude Reporting Facility
EST Latitude Longitude Course Direction KTS MPH feet Rate Location/Type
Mon 04:06:31 PM 40.9075 -85.2558 143° Southeast 306 352 4,000  Level Chicago Center
Mon 04:07:33 PM 40.8425 -85.2008 147° Southeast 284 327 6,900 2,710 Climbing Chicago Center
Mon 04:08:35 PM 40.7706 -85.1408 148° Southeast 306 352 9,600 1,887 Climbing Chicago Center
Mon 04:09:37 PM 40.6819 -85.1372 178° South 316 364 10,800 1,790 Climbing Chicago Center
Mon 04:10:39 PM 40.5608 -85.1294 177° South 364 419 13,300 2,352 Climbing Chicago Center
Mon 04:11:00 PM 40.0292 -84.4126 143° Southeast  Level FlightAware
Mon 04:11:42 PM 40.4522 -85.1211 177° South 387 445 15,700  Level Chicago Center
Mon 04:12:43 PM 40.3389 -85.1097 176° South 404 465 18,300 2,146 Climbing Chicago Center
Mon 04:13:45 PM 40.2261 -85.1003 176° South 406 467 20,100 1,742 Climbing Chicago Center
Mon 04:14:47 PM 40.1072 -85.0850 174° South 425 489 21,900 1,824 Climbing Chicago Center
Mon 04:15:50 PM 39.9642 -85.0714 176° South 430 495 23,900 1,680 Climbing Chicago Center
Mon 04:16:52 PM 39.8406 -85.0597 176° South 441 507 25,400 1,645 Climbing Chicago Center
Mon 04:17:54 PM 39.7200 -85.0506 177° South 437 503 27,300 1,694 Climbing Chicago Center
Mon 04:18:56 PM 39.6017 -85.0394 176° South 430 495 28,900 1,366 Climbing Chicago Center
Mon 04:20:19 PM 39.4383 -85.0258 176° South 422 486 30,600 1,034 Climbing Indianapolis Center
Mon 04:21:21 PM 39.3219 -85.0169 177° South 420 483 31,400 871 Climbing Indianapolis Center
Mon 04:22:23 PM 39.2078 -85.0061 176° South 415 478 32,400 726 Climbing Indianapolis Center
Mon 04:23:25 PM 39.0942 -84.9969 176° South 411 473 32,900 290 Climbing Indianapolis Center
Mon 04:24:27 PM 38.9564 -84.9850 176° South 412 474 33,000 48 Climbing Indianapolis Center
Mon 04:25:29 PM 38.8414 -84.9758 176° South 413 475 33,000  Level Indianapolis Center
Mon 04:26:31 PM 38.7264 -84.9672 177° South 415 478 33,000  Level Indianapolis Center
Mon 04:27:33 PM 38.6003 -84.9567 176° South 414 476 33,000  Level Indianapolis Center
Mon 04:28:35 PM 38.4853 -84.9478 177° South 412 474 33,000  Level Indianapolis Center
Mon 04:29:36 PM 38.3692 -84.9375 176° South 417 480 33,000  Level Indianapolis Center
Mon 04:30:38 PM 38.2531 -84.9278 176° South 416 479 33,000  Level Indianapolis Center
Mon 04:31:40 PM 38.1375 -84.9194 177° South 417 480 33,000  Level Indianapolis Center
Mon 04:32:42 PM 38.0006 -84.9100 177° South 419 482 33,000  Level Indianapolis Center
Mon 04:33:44 PM 37.8839 -84.9014 177° South 421 484 33,000  Level Indianapolis Center
Mon 04:34:46 PM 37.7703 -84.8922 176° South 411 473 33,000  Level Indianapolis Center
Mon 04:35:48 PM 37.6531 -84.8811 176° South 417 480 33,000  Level Indianapolis Center
Mon 04:36:50 PM 37.5372 -84.8736 177° South 419 482 33,000  Level Indianapolis Center
Mon 04:37:52 PM 37.3997 -84.8628 176° South 423 487 33,000  Level Indianapolis Center
Mon 04:38:53 PM 37.2839 -84.8528 176° South 418 481 33,000  Level Indianapolis Center
Mon 04:39:55 PM 37.1678 -84.8444 177° South 418 481 33,000  Level Indianapolis Center
Mon 04:40:57 PM 37.0508 -84.8361 177° South 421 484 33,000  Level Indianapolis Center
Mon 04:41:59 PM 36.9253 -84.8264 176° South 418 481 33,000  Level Indianapolis Center
Mon 04:43:01 PM 36.8083 -84.8161 176° South 420 483 33,000  Level Indianapolis Center
Mon 04:44:03 PM 36.6903 -84.8075 177° South 423 487 33,000  Level Indianapolis Center
Mon 04:45:05 PM 36.5728 -84.7986 177° South 421 484 33,000  Level Indianapolis Center
Mon 04:46:07 PM 36.4542 -84.7892 176° South 425 489 33,000  Level Indianapolis Center
Mon 04:47:09 PM 36.3114 -84.7781 176° South 427 491 33,000  Level Indianapolis Center
Mon 04:48:10 PM 36.1944 -84.7692 176° South 422 486 33,000  Level Indianapolis Center
Mon 04:49:12 PM 36.0753 -84.7611 177° South 425 489 33,000  Level Indianapolis Center
Mon 04:50:03 PM 35.9750 -84.7519 176° South 425 489 33,000  Level Atlanta Center
Mon 04:51:03 PM 35.8519 -84.7408 176° South 425 489 33,000  Level Atlanta Center
Mon 04:52:03 PM 35.7350 -84.7372 179° South 425 489 33,000  Level Atlanta Center
Mon 04:53:03 PM 35.6161 -84.7286 177° South 430 495 33,000  Level Atlanta Center
Mon 04:54:03 PM 35.4994 -84.7200 177° South 430 495 33,000  Level Atlanta Center
Mon 04:55:03 PM 35.3806 -84.7111 177° South 425 489 33,000  Level Atlanta Center
Mon 04:56:03 PM 35.2594 -84.7025 177° South 425 489 33,000  Level Atlanta Center
Mon 04:57:03 PM 35.1450 -84.6942 177° South 425 489 33,000  Level Atlanta Center
Mon 04:58:03 PM 35.0281 -84.6831 176° South 420 483 33,000  Level Atlanta Center
Mon 04:59:03 PM 34.9092 -84.6769 178° South 426 490 33,000  Level Atlanta Center
Mon 05:00:03 PM 34.7881 -84.6686 177° South 426 490 33,000  Level Atlanta Center
Mon 05:01:03 PM 34.6692 -84.6600 177° South 431 496 33,000  Level Atlanta Center
Mon 05:02:03 PM 34.5503 -84.6467 175° South 431 496 33,000  Level Atlanta Center
Mon 05:03:03 PM 34.4294 -84.6381 177° South 431 496 33,000  Level Atlanta Center
Mon 05:04:03 PM 34.3106 -84.6297 177° South 441 507 33,000  Level Atlanta Center
Mon 05:05:03 PM 34.1853 -84.6214 177° South 441 507 33,000  Level Atlanta Center
Mon 05:06:03 PM 34.0600 -84.6131 177° South 447 514 33,000  Level Atlanta Center
Mon 05:07:03 PM 33.9411 -84.6047 177° South 447 514 33,000  Level Atlanta Center
Mon 05:08:03 PM 33.8347 -84.6014 179° South 433 498 33,000  Level Atlanta Center
Mon 05:09:03 PM 33.7136 -84.5858 174° South 433 498 33,000  Level Atlanta Center
Mon 05:10:03 PM 33.5781 -84.5800 178° South 441 507 33,000  Level Atlanta Center
Mon 05:11:03 PM 33.4592 -84.5717 177° South 444 511 33,000  Level Atlanta Center
Mon 05:12:03 PM 33.3422 -84.5636 177° South 435 501 33,000  Level Atlanta Center
Mon 05:13:03 PM 33.2253 -84.5578 178° South 423 487 33,000  Level Atlanta Center
Mon 05:14:03 PM 33.1169 -84.5472 175° South 423 487 33,000  Level Atlanta Center
Mon 05:15:03 PM 32.9981 -84.5392 177° South 423 487 33,000  Level Atlanta Center
Mon 05:16:03 PM 32.8811 -84.5336 178° South 423 487 33,000  Level Atlanta Center
Mon 05:17:03 PM 32.7475 -84.5228 176° South 423 487 33,000  Level Atlanta Center
Mon 05:18:03 PM 32.6264 -84.5147 177° South 428 493 33,000  Level Atlanta Center
Mon 05:19:03 PM 32.5056 -84.5044 176° South 433 498 33,000  Level Atlanta Center
Mon 05:20:03 PM 32.3825 -84.4964 177° South 439 505 33,000  Level Atlanta Center
Mon 05:21:03 PM 32.2633 -84.4883 177° South 439 505 33,000  Level Atlanta Center
Mon 05:22:03 PM 32.1444 -84.4828 178° South 439 505 33,000  Level Atlanta Center
Mon 05:22:34 PM 32.0836 -84.4742 173° South 440 506 33,000  Level Jacksonville Center
Mon 05:23:34 PM 31.9708 -84.4672 177° South 440 506 33,000  Level Jacksonville Center
Mon 05:24:34 PM 31.8519 -84.4603 177° South 440 506 33,000  Level Jacksonville Center
Mon 05:25:34 PM 31.7311 -84.4511 176° South 440 506 33,000  Level Jacksonville Center
Mon 05:26:34 PM 31.6081 -84.4442 177° South 440 506 33,000  Level Jacksonville Center
Mon 05:27:34 PM 31.4869 -84.4347 176° South 440 506 33,000  Level Jacksonville Center
Mon 05:28:34 PM 31.3639 -84.4278 177° South 440 506 33,000  Level Jacksonville Center
Mon 05:29:34 PM 31.2447 -84.4356 183° South 440 506 33,000  Level Jacksonville Center
Mon 05:30:34 PM 31.1439 -84.4922 206° Southwest 414 476 33,000  Level Jacksonville Center
Mon 05:31:34 PM 31.0450 -84.5511 207° Southwest 409 471 33,000  Level Jacksonville Center
Mon 05:32:34 PM 30.9358 -84.5953 199° South 409 471 33,000  Level Jacksonville Center
Mon 05:33:34 PM 30.8175 -84.5400 158° South 409 471 33,000  Level Jacksonville Center
Mon 05:34:34 PM 30.7017 -84.4631 150° Southeast 432 497 33,000  Level Jacksonville Center
Mon 05:35:34 PM 30.5731 -84.3836 152° Southeast 464 534 33,000  Level Jacksonville Center
Mon 05:36:34 PM 30.4756 -84.3194 150° Southeast 464 534 33,000  Level Jacksonville Center
Mon 05:37:34 PM 30.3594 -84.2456 151° Southeast 470 541 33,000  Level Jacksonville Center
Mon 05:38:34 PM 30.2475 -84.1694 150° Southeast 475 547 33,000  Level Jacksonville Center
Mon 05:39:34 PM 30.1336 -84.0958 151° Southeast 470 541 33,000  Level Jacksonville Center
Mon 05:40:34 PM 30.0194 -84.0225 151° Southeast 470 541 33,000  Level Jacksonville Center
Mon 05:41:34 PM 29.9072 -83.9492 150° Southeast 470 541 33,000  Level Jacksonville Center
Mon 05:42:34 PM 29.7908 -83.8761 151° Southeast 470 541 33,000 -50 Level Jacksonville Center
Mon 05:43:34 PM 29.6786 -83.8008 150° Southeast 470 541 32,900 -550 Descending Jacksonville Center
Mon 05:44:34 PM 29.5644 -83.7283 151° Southeast 470 541 31,900 -1,600 Descending Jacksonville Center
Mon 05:45:34 PM 29.4458 -83.6533 151° Southeast 470 541 29,700 -2,200 Descending Jacksonville Center
Mon 05:46:34 PM 29.3294 -83.5786 151° Southeast 475 547 27,500 -1,350 Descending Jacksonville Center
Mon 05:47:34 PM 29.2128 -83.5064 152° Southeast 475 547 27,000 -900 Descending Jacksonville Center
Mon 05:48:34 PM 29.0964 -83.4297 150° Southeast 480 552 25,700 -2,000 Descending Jacksonville Center
Mon 05:49:34 PM 28.9900 -83.3625 151° Southeast 463 533 23,000 -2,500 Descending Jacksonville Center
Mon 05:50:34 PM 28.8881 -83.2956 150° Southeast 442 509 20,700 -2,400 Descending Jacksonville Center
Mon 05:51:34 PM 28.7903 -83.2361 152° Southeast 419 482 18,200 -2,497 Descending Jacksonville Center
Mon 05:53:15 PM 28.6167 -83.1333 153° Southeast 386 444 14,000 -2,422 Descending Tampa TRACON
Mon 05:54:15 PM 28.5333 -83.0667 145° Southeast 370 426 11,700 -1,550 Descending Tampa TRACON
Mon 05:55:15 PM 28.4333 -83.0167 156° South 369 425 10,900 -381 Descending Tampa TRACON
Mon 05:56:21 PM 28.3333 -82.9500 150° Southeast 369 425 10,900 -429 Level Tampa TRACON
Mon 05:57:21 PM 28.2833 -82.8667 124° Southeast 321 369 10,000 -1,000 Descending Tampa TRACON
Mon 05:58:21 PM 28.2500 -82.7833 114° Southeast 280 322 8,900 -1,500 Descending Tampa TRACON
Mon 05:59:21 PM 28.1833 -82.7500 156° South 254 292 7,000 -2,200 Descending Tampa TRACON
Mon 06:00:21 PM 28.1167 -82.7167 156° South 256 295 4,500 -2,200 Descending Tampa TRACON
Mon 06:01:21 PM 28.0500 -82.6833 156° South 247 284 2,600 -1,474 Descending Tampa TRACON
Mon 06:02:15 PM 28.0000 -82.6667 164° South 190 219 1,700 -1,056 Descending Tampa TRACON
Mon 06:03:09 PM 27.9667 -82.6833 204° Southwest 142 163 700 -730 Descending Tampa TRACON
Mon 06:04:10 PM 27.9333 -82.7000 204° Southwest 130 150 300 -393 Descending Tampa TRACON

Login

Don't have an account? Register now (free) for customized features, flight alerts, and more!